Time;durP1;ratioP1;P1;durP2;ratioP2;P2;SDS_P1;SDS_P2;PMS_P1;PMS_P2;Temp;Humidity;BMP_temperature;BMP_pressure;BME280_temperature;BME280_humidity;BME280_pressure;Samples;Min_cycle;Max_cycle;Signal;HPM_P1;HPM_P2
2023/04/09 00:00:14;;;;;;;45.38;26.05;;;;;;;;;;5012129;28;94797;-72
2023/04/09 00:02:41;;;;;;;46.40;26.33;;;;;;;;;;5015731;28;94597;-72
2023/04/09 00:05:07;;;;;;;47.97;27.63;;;;;;;;;;5018909;28;92601;-72
2023/04/09 00:07:34;;;;;;;52.72;27.92;;;;;;;;;;5009719;28;94448;-72
2023/04/09 00:10:00;;;;;;;46.10;26.63;;;;;;;;;;5008747;28;92530;-72
2023/04/09 00:12:26;;;;;;;50.22;26.85;;;;;;;;;;5012635;28;93592;-72
2023/04/09 00:14:54;;;;;;;48.33;27.27;;;;;;;;;;5015472;28;93661;-72
2023/04/09 00:17:20;;;;;;;50.10;25.77;;;;;;;;;;5000161;28;91794;-72
2023/04/09 00:19:47;;;;;;;52.13;27.25;;;;;;;;;;5003954;28;94089;-72
2023/04/09 00:22:14;;;;;;;47.85;26.70;;;;;;;;;;4994749;28;94431;-72
2023/04/09 00:24:40;;;;;;;48.25;26.40;;;;;;;;;;4998781;28;95070;-72
2023/04/09 00:27:06;;;;;;;44.78;25.50;;;;;;;;;;5002588;28;95611;-72
2023/04/09 00:29:33;;;;;;;51.40;27.98;;;;;;;;;;5013205;28;92538;-72
2023/04/09 00:31:59;;;;;;;49.72;27.73;;;;;;;;;;5015539;28;93177;-72
2023/04/09 00:34:26;;;;;;;48.97;27.45;;;;;;;;;;5015083;28;96752;-73
2023/04/09 00:36:52;;;;;;;49.65;27.48;;;;;;;;;;4994489;28;93155;-72
2023/04/09 00:39:18;;;;;;;48.20;27.15;;;;;;;;;;4998683;28;94505;-72
2023/04/09 00:41:44;;;;;;;50.47;27.50;;;;;;;;;;5013860;28;92712;-72
2023/04/09 00:44:11;;;;;;;50.40;27.48;;;;;;;;;;5014819;28;92569;-72
2023/04/09 00:46:37;;;;;;;49.78;27.65;;;;;;;;;;5007793;28;93480;-72
2023/04/09 00:49:04;;;;;;;50.40;26.27;;;;;;;;;;4998535;28;95859;-72
2023/04/09 00:51:30;;;;;;;49.63;27.85;;;;;;;;;;4995038;28;95612;-72
2023/04/09 00:53:56;;;;;;;48.50;26.98;;;;;;;;;;4990740;28;95180;-72
2023/04/09 00:56:23;;;;;;;50.67;27.58;;;;;;;;;;4988886;28;92447;-72
2023/04/09 00:58:50;;;;;;;47.70;26.88;;;;;;;;;;5004723;28;93705;-72
2023/04/09 01:01:16;;;;;;;51.30;27.35;;;;;;;;;;5001264;28;93863;-72
2023/04/09 01:03:43;;;;;;;49.70;27.95;;;;;;;;;;5011224;28;92668;-71
2023/04/09 01:06:30;;;;;;;52.88;26.73;;;;;;;;;;5013435;28;93198;-72
2023/04/09 01:09:01;;;;;;;46.28;25.83;;;;;;;;;;5007392;28;94432;-72
2023/04/09 01:11:34;;;;;;;50.03;28.65;;;;;;;;;;5016383;28;92630;-72
2023/04/09 01:14:19;;;;;;;54.17;26.58;;;;;;;;;;5008198;28;95904;-71
2023/04/09 01:16:49;;;;;;;47.38;25.95;;;;;;;;;;4996196;28;92425;-72
2023/04/09 01:19:27;;;;;;;47.07;26.87;;;;;;;;;;4993297;28;93418;-72
2023/04/09 01:21:55;;;;;;;52.67;26.50;;;;;;;;;;4994056;28;94393;-72
2023/04/09 01:24:33;;;;;;;43.60;25.77;;;;;;;;;;4990773;28;92890;-74
2023/04/09 01:27:06;;;;;;;56.72;27.70;;;;;;;;;;5010076;28;94466;-71
2023/04/09 01:29:34;;;;;;;48.55;26.58;;;;;;;;;;4985586;28;93513;-71
2023/04/09 01:32:01;;;;;;;45.30;26.10;;;;;;;;;;4978617;28;91791;-74
2023/04/09 01:34:29;;;;;;;52.53;27.10;;;;;;;;;;4994401;28;93730;-75
2023/04/09 01:36:57;;;;;;;40.75;25.60;;;;;;;;;;5011029;28;92525;-74
2023/04/09 01:39:24;;;;;;;40.60;24.13;;;;;;;;;;5009214;28;94855;-73
2023/04/09 01:41:51;;;;;;;47.13;25.58;;;;;;;;;;5008957;28;93172;-73
2023/04/09 01:44:18;;;;;;;43.58;24.45;;;;;;;;;;5011309;28;93969;-73
2023/04/09 01:46:48;;;;;;;45.95;25.75;;;;;;;;;;5005416;28;93287;-73
2023/04/09 01:49:15;;;;;;;44.65;25.17;;;;;;;;;;4995907;28;93622;-73
2023/04/09 01:51:41;;;;;;;48.63;25.85;;;;;;;;;;4993815;28;92553;-73
2023/04/09 01:54:08;;;;;;;48.17;26.70;;;;;;;;;;5010373;28;93261;-73
2023/04/09 01:56:40;;;;;;;44.30;25.60;;;;;;;;;;5014730;28;91710;-73
2023/04/09 01:59:07;;;;;;;46.33;25.35;;;;;;;;;;5005122;28;92484;-73
2023/04/09 02:01:42;;;;;;;47.83;25.27;;;;;;;;;;4994064;28;93620;-73
2023/04/09 02:04:12;;;;;;;45.35;25.63;;;;;;;;;;4990001;28;96753;-72
2023/04/09 02:06:48;;;;;;;48.38;25.95;;;;;;;;;;4993989;28;95706;-72
2023/04/09 02:09:15;;;;;;;44.13;23.88;;;;;;;;;;4992473;28;94369;-72
2023/04/09 02:11:42;;;;;;;43.55;24.98;;;;;;;;;;4993880;28;92431;-72
2023/04/09 02:14:10;;;;;;;44.88;25.70;;;;;;;;;;5005043;28;93820;-72
2023/04/09 02:16:37;;;;;;;48.83;25.33;;;;;;;;;;5011570;28;93453;-73
2023/04/09 02:19:04;;;;;;;45.63;24.60;;;;;;;;;;4982096;28;93410;-72
2023/04/09 02:21:30;;;;;;;44.70;25.73;;;;;;;;;;5005764;28;93290;-72
2023/04/09 02:23:57;;;;;;;46.72;25.80;;;;;;;;;;4995848;28;92526;-72
2023/04/09 02:26:23;;;;;;;46.65;26.00;;;;;;;;;;5013575;28;93126;-72
2023/04/09 02:28:49;;;;;;;42.97;25.00;;;;;;;;;;5009302;28;95998;-72
2023/04/09 02:31:16;;;;;;;44.97;25.63;;;;;;;;;;5012167;28;92462;-72
2023/04/09 02:33:43;;;;;;;45.75;25.20;;;;;;;;;;5007178;28;93274;-72
2023/04/09 02:36:12;;;;;;;50.00;26.90;;;;;;;;;;4996434;28;93376;-72
2023/04/09 02:38:39;;;;;;;55.17;27.80;;;;;;;;;;5014824;28;92451;-72
2023/04/09 02:41:05;;;;;;;45.30;25.95;;;;;;;;;;5013322;28;93811;-71
2023/04/09 02:43:32;;;;;;;48.58;25.92;;;;;;;;;;4996905;28;92417;-72
2023/04/09 02:45:58;;;;;;;43.17;25.60;;;;;;;;;;4993765;28;93146;-72
2023/04/09 02:48:24;;;;;;;46.28;27.25;;;;;;;;;;4997813;28;94014;-72
2023/04/09 02:50:51;;;;;;;46.85;27.15;;;;;;;;;;4993416;28;92442;-72
2023/04/09 02:53:17;;;;;;;55.22;28.13;;;;;;;;;;4987881;28;94794;-72
2023/04/09 02:55:43;;;;;;;45.17;27.70;;;;;;;;;;4993165;28;92469;-72
2023/04/09 02:58:09;;;;;;;53.13;26.35;;;;;;;;;;4995168;28;92790;-72
2023/04/09 03:00:36;;;;;;;42.25;25.25;;;;;;;;;;5013994;28;93245;-72
2023/04/09 03:03:02;;;;;;;46.70;25.67;;;;;;;;;;5000080;28;95107;-72
2023/04/09 03:05:29;;;;;;;47.25;26.60;;;;;;;;;;4992980;28;93544;-73
2023/04/09 03:07:56;;;;;;;49.63;26.10;;;;;;;;;;4998896;28;93868;-72
2023/04/09 03:10:22;;;;;;;48.33;26.75;;;;;;;;;;5011472;28;91873;-72
2023/04/09 03:12:48;;;;;;;44.53;27.08;;;;;;;;;;5011165;28;92682;-72
2023/04/09 03:15:15;;;;;;;46.85;25.92;;;;;;;;;;5010854;28;93978;-71
2023/04/09 03:17:41;;;;;;;43.80;24.58;;;;;;;;;;4987085;28;96030;-72
2023/04/09 03:20:08;;;;;;;51.33;25.80;;;;;;;;;;4976083;28;95641;-72
2023/04/09 03:22:38;;;;;;;44.90;24.90;;;;;;;;;;4988660;28;92484;-72
2023/04/09 03:25:04;;;;;;;41.75;24.33;;;;;;;;;;4992710;28;93582;-72
2023/04/09 03:27:31;;;;;;;42.53;23.60;;;;;;;;;;4997461;28;93459;-72
2023/04/09 03:29:57;;;;;;;45.15;25.15;;;;;;;;;;5009429;28;93736;-72
2023/04/09 03:32:24;;;;;;;46.22;25.50;;;;;;;;;;4996488;28;94635;-72
2023/04/09 03:34:50;;;;;;;44.60;24.98;;;;;;;;;;4992729;28;92872;-71
2023/04/09 03:37:16;;;;;;;52.67;26.27;;;;;;;;;;4995756;28;92686;-72
2023/04/09 03:39:42;;;;;;;48.38;24.63;;;;;;;;;;5009690;28;93174;-71
2023/04/09 03:42:09;;;;;;;44.13;25.23;;;;;;;;;;5007543;28;96021;-72
2023/04/09 03:44:35;;;;;;;42.10;24.05;;;;;;;;;;5009250;28;95706;-72
2023/04/09 03:47:02;;;;;;;42.35;23.95;;;;;;;;;;5003592;28;93766;-72
2023/04/09 03:49:28;;;;;;;41.47;23.55;;;;;;;;;;4992394;28;92406;-72
2023/04/09 03:51:54;;;;;;;43.15;24.25;;;;;;;;;;4997939;28;92746;-72
2023/04/09 03:54:21;;;;;;;40.33;24.17;;;;;;;;;;5014025;28;93820;-72
2023/04/09 03:56:47;;;;;;;46.03;24.67;;;;;;;;;;5015646;28;92435;-72
2023/04/09 03:59:13;;;;;;;43.78;24.52;;;;;;;;;;5016292;28;92974;-72
2023/04/09 04:01:40;;;;;;;40.85;24.60;;;;;;;;;;5000579;28;93798;-72
2023/04/09 04:04:06;;;;;;;40.75;22.98;;;;;;;;;;5002691;28;94068;-71
2023/04/09 04:06:34;;;;;;;38.00;23.40;;;;;;;;;;5000039;28;95872;-72
2023/04/09 04:09:00;;;;;;;42.92;25.15;;;;;;;;;;4995386;28;92539;-72
2023/04/09 04:11:27;;;;;;;42.63;24.67;;;;;;;;;;4992760;28;93351;-72
2023/04/09 04:13:54;;;;;;;41.55;25.65;;;;;;;;;;5014699;28;93782;-72
2023/04/09 04:16:21;;;;;;;43.13;24.02;;;;;;;;;;5010233;28;92603;-72
2023/04/09 04:18:47;;;;;;;42.20;24.23;;;;;;;;;;4979630;28;93146;-72
2023/04/09 04:21:14;;;;;;;47.72;25.55;;;;;;;;;;4987838;28;93440;-72
2023/04/09 04:23:40;;;;;;;38.97;23.10;;;;;;;;;;5014289;28;91956;-72
2023/04/09 04:26:08;;;;;;;47.85;25.30;;;;;;;;;;5012291;28;94079;-72
2023/04/09 04:28:35;;;;;;;47.25;24.85;;;;;;;;;;4978814;28;92552;-72
2023/04/09 04:31:02;;;;;;;44.47;25.52;;;;;;;;;;5008121;28;95475;-72
2023/04/09 04:33:28;;;;;;;44.03;25.05;;;;;;;;;;4997850;28;93440;-72
2023/04/09 04:36:02;;;;;;;43.38;25.42;;;;;;;;;;4997630;28;92491;-72
2023/04/09 04:38:29;;;;;;;48.63;25.65;;;;;;;;;;4975514;28;93248;-72
2023/04/09 04:40:55;;;;;;;43.28;24.98;;;;;;;;;;4989328;28;94430;-72
2023/04/09 04:43:21;;;;;;;42.15;24.35;;;;;;;;;;5005461;28;92416;-72
2023/04/09 04:45:47;;;;;;;40.40;24.25;;;;;;;;;;5015078;28;94354;-72
2023/04/09 04:48:14;;;;;;;41.03;24.52;;;;;;;;;;5016918;28;92468;-72
2023/04/09 04:50:40;;;;;;;42.13;25.50;;;;;;;;;;5006523;28;92520;-72
2023/04/09 04:53:06;;;;;;;46.47;25.70;;;;;;;;;;5013270;28;93296;-72
2023/04/09 04:55:38;;;;;;;43.47;26.08;;;;;;;;;;4996159;28;95285;-72
2023/04/09 04:58:04;;;;;;;44.22;25.45;;;;;;;;;;5008577;28;95542;-72
2023/04/09 05:00:30;;;;;;;43.55;25.15;;;;;;;;;;5010885;28;94475;-72
2023/04/09 05:02:57;;;;;;;50.30;27.42;;;;;;;;;;5015173;28;92380;-72
2023/04/09 05:05:23;;;;;;;45.72;26.40;;;;;;;;;;5013984;28;93064;-72
2023/04/09 05:07:50;;;;;;;46.30;25.27;;;;;;;;;;5000738;28;93541;-72
2023/04/09 05:10:16;;;;;;;45.35;27.17;;;;;;;;;;5008781;28;92449;-72
2023/04/09 05:12:43;;;;;;;45.58;27.13;;;;;;;;;;4994709;28;93023;-72
2023/04/09 05:15:09;;;;;;;47.95;27.90;;;;;;;;;;4994771;28;92436;-72
2023/04/09 05:17:35;;;;;;;43.90;26.73;;;;;;;;;;4991563;28;93584;-72
2023/04/09 05:20:02;;;;;;;46.72;26.95;;;;;;;;;;4997702;28;95791;-72
2023/04/09 05:22:28;;;;;;;44.35;27.38;;;;;;;;;;4995013;28;92490;-72
2023/04/09 05:24:54;;;;;;;45.30;27.58;;;;;;;;;;5010029;28;93186;-72
2023/04/09 05:27:23;;;;;;;45.28;26.83;;;;;;;;;;5014192;28;93424;-72
2023/04/09 05:29:49;;;;;;;51.13;27.63;;;;;;;;;;5013790;28;92711;-72
2023/04/09 05:32:15;;;;;;;46.95;27.20;;;;;;;;;;5009055;28;94250;-72
2023/04/09 05:34:42;;;;;;;53.13;30.80;;;;;;;;;;5012349;28;94065;-72
2023/04/09 05:37:08;;;;;;;54.67;31.80;;;;;;;;;;5014676;28;93532;-72
2023/04/09 05:39:35;;;;;;;57.17;32.75;;;;;;;;;;5014360;28;93333;-72
2023/04/09 05:42:01;;;;;;;64.97;33.92;;;;;;;;;;5001386;28;92448;-72
2023/04/09 05:44:27;;;;;;;57.80;32.92;;;;;;;;;;4975169;28;94834;-72
2023/04/09 05:46:53;;;;;;;63.00;34.80;;;;;;;;;;5004585;28;93799;-72
2023/04/09 05:49:20;;;;;;;60.35;33.70;;;;;;;;;;4994187;28;92534;-72
2023/04/09 05:51:46;;;;;;;59.20;33.65;;;;;;;;;;4999048;28;93722;-72
2023/04/09 05:54:13;;;;;;;58.63;33.72;;;;;;;;;;5012101;28;92680;-72
2023/04/09 05:56:41;;;;;;;58.50;33.83;;;;;;;;;;5012591;28;93172;-72
2023/04/09 05:59:07;;;;;;;58.10;34.78;;;;;;;;;;5012267;28;93184;-72
2023/04/09 06:01:33;;;;;;;55.10;31.50;;;;;;;;;;5011375;28;94530;-72
2023/04/09 06:04:00;;;;;;;55.15;32.05;;;;;;;;;;5012218;28;92691;-72
2023/04/09 06:06:27;;;;;;;54.72;31.55;;;;;;;;;;5013758;28;93565;-72
2023/04/09 06:08:53;;;;;;;55.33;31.25;;;;;;;;;;5011660;28;95058;-72
2023/04/09 06:11:21;;;;;;;60.03;33.75;;;;;;;;;;4998906;28;95591;-72
2023/04/09 06:13:48;;;;;;;51.42;30.55;;;;;;;;;;5005311;28;93774;-72
2023/04/09 06:16:14;;;;;;;58.15;30.77;;;;;;;;;;5011377;28;93091;-72
2023/04/09 06:18:41;;;;;;;51.22;30.27;;;;;;;;;;4974809;28;92418;-72
2023/04/09 06:21:08;;;;;;;53.47;31.33;;;;;;;;;;4983468;28;92527;-73
2023/04/09 06:23:35;;;;;;;52.80;30.88;;;;;;;;;;4993863;28;93143;-72
2023/04/09 06:26:01;;;;;;;54.35;28.17;;;;;;;;;;4994394;28;93342;-72
2023/04/09 06:28:28;;;;;;;46.80;27.23;;;;;;;;;;4992760;28;92458;-72
2023/04/09 06:30:54;;;;;;;50.35;26.58;;;;;;;;;;5010192;28;93195;-72
2023/04/09 06:33:21;;;;;;;45.30;26.10;;;;;;;;;;5008154;28;96056;-72
2023/04/09 06:35:47;;;;;;;46.65;26.55;;;;;;;;;;5016666;28;92406;-72
2023/04/09 06:38:14;;;;;;;41.33;24.30;;;;;;;;;;5013427;28;94657;-72
2023/04/09 06:40:41;;;;;;;44.20;24.60;;;;;;;;;;5007310;28;92578;-72
2023/04/09 06:43:08;;;;;;;41.47;23.95;;;;;;;;;;5009411;28;93780;-72
2023/04/09 06:45:36;;;;;;;38.55;23.02;;;;;;;;;;5013553;28;95712;-72
2023/04/09 06:48:05;;;;;;;37.35;22.65;;;;;;;;;;4995902;28;92699;-72
2023/04/09 06:50:32;;;;;;;36.90;22.58;;;;;;;;;;4993660;28;92944;-72
2023/04/09 06:52:58;;;;;;;39.00;22.90;;;;;;;;;;4996246;28;93268;-72
2023/04/09 06:55:25;;;;;;;42.13;23.02;;;;;;;;;;4993862;28;92630;-72
2023/04/09 06:57:52;;;;;;;37.90;22.90;;;;;;;;;;4994899;28;94844;-72
2023/04/09 07:00:18;;;;;;;32.72;21.42;;;;;;;;;;4991702;28;92513;-72
2023/04/09 07:02:44;;;;;;;35.60;21.65;;;;;;;;;;5007220;28;93308;-72
2023/04/09 07:05:11;;;;;;;34.03;21.63;;;;;;;;;;5012876;28;93258;-72
2023/04/09 07:07:38;;;;;;;33.95;20.58;;;;;;;;;;5010640;28;92484;-72
2023/04/09 07:10:05;;;;;;;33.45;20.65;;;;;;;;;;5004401;28;93526;-72
2023/04/09 07:12:33;;;;;;;32.20;19.67;;;;;;;;;;5003378;28;93242;-73
2023/04/09 07:15:00;;;;;;;35.97;20.77;;;;;;;;;;4989737;28;91837;-73
2023/04/09 07:17:26;;;;;;;30.35;19.35;;;;;;;;;;4988941;28;92525;-71
2023/04/09 07:19:53;;;;;;;28.48;18.00;;;;;;;;;;4990674;28;93672;-73
2023/04/09 07:22:21;;;;;;;32.40;18.75;;;;;;;;;;4990295;28;94943;-74
2023/04/09 07:24:53;;;;;;;31.73;18.92;;;;;;;;;;4994608;28;93380;-73
2023/04/09 07:27:20;;;;;;;32.70;20.20;;;;;;;;;;4992595;28;93551;-75
2023/04/09 07:29:47;;;;;;;34.15;19.58;;;;;;;;;;4990873;28;92468;-73
2023/04/09 07:32:14;;;;;;;33.70;19.67;;;;;;;;;;5000989;28;93441;-74
2023/04/09 07:34:42;;;;;;;31.35;20.15;;;;;;;;;;5015480;28;92848;-75
2023/04/09 07:37:08;;;;;;;33.65;19.88;;;;;;;;;;5016723;28;93464;-74
2023/04/09 07:39:35;;;;;;;37.60;20.67;;;;;;;;;;5017763;28;92058;-74
2023/04/09 07:42:01;;;;;;;34.00;19.33;;;;;;;;;;4996688;28;94078;-73
2023/04/09 07:44:28;;;;;;;37.38;20.60;;;;;;;;;;5005424;28;93415;-72
2023/04/09 07:46:54;;;;;;;30.85;19.30;;;;;;;;;;4994177;28;94872;-72
2023/04/09 07:49:21;;;;;;;33.33;19.92;;;;;;;;;;4997180;28;94492;-72
2023/04/09 07:51:47;;;;;;;41.03;20.52;;;;;;;;;;5003586;28;93361;-74
2023/04/09 07:54:13;;;;;;;33.10;19.50;;;;;;;;;;4993542;28;92468;-74
2023/04/09 07:56:40;;;;;;;31.58;19.92;;;;;;;;;;5004537;28;93188;-73
2023/04/09 07:59:06;;;;;;;37.13;20.08;;;;;;;;;;4998189;28;93421;-74
2023/04/09 08:01:32;;;;;;;35.05;20.02;;;;;;;;;;5015841;28;92475;-75
2023/04/09 08:03:59;;;;;;;36.22;19.60;;;;;;;;;;5007433;28;93424;-74
2023/04/09 08:06:25;;;;;;;35.38;20.13;;;;;;;;;;5014394;28;92452;-74
2023/04/09 08:08:52;;;;;;;35.45;21.52;;;;;;;;;;5034494;28;93648;-72
2023/04/09 08:11:24;;;;;;;32.72;20.38;;;;;;;;;;5035814;28;94356;-75
2023/04/09 08:13:50;;;;;;;33.47;20.85;;;;;;;;;;5034454;28;91671;-75
2023/04/09 08:16:17;;;;;;;37.40;21.70;;;;;;;;;;5027707;28;93596;-75
2023/04/09 08:18:44;;;;;;;33.85;20.55;;;;;;;;;;5037611;28;92319;-75
2023/04/09 08:21:10;;;;;;;32.22;20.83;;;;;;;;;;5006964;28;91560;-74
2023/04/09 08:23:37;;;;;;;35.75;23.40;;;;;;;;;;5023893;28;95106;-74
2023/04/09 08:26:03;;;;;;;37.85;21.70;;;;;;;;;;5020186;28;92184;-74
2023/04/09 08:28:30;;;;;;;32.08;20.30;;;;;;;;;;5020577;28;91871;-74
2023/04/09 08:30:56;;;;;;;34.05;21.33;;;;;;;;;;5019130;28;94743;-75
2023/04/09 08:33:22;;;;;;;33.28;21.13;;;;;;;;;;5018896;28;92267;-76
2023/04/09 08:35:49;;;;;;;33.85;20.75;;;;;;;;;;5023651;28;94799;-74
2023/04/09 08:38:15;;;;;;;32.72;20.95;;;;;;;;;;5020883;28;92147;-75
2023/04/09 08:40:41;;;;;;;38.05;22.00;;;;;;;;;;5005913;28;92442;-75
2023/04/09 08:43:09;;;;;;;37.65;22.98;;;;;;;;;;4999033;28;92956;-77
2023/04/09 08:45:35;;;;;;;36.63;22.83;;;;;;;;;;5008316;28;94162;-78
2023/04/09 08:48:02;;;;;;;38.30;22.55;;;;;;;;;;5001814;28;92411;-75
2023/04/09 08:50:30;;;;;;;40.22;24.17;;;;;;;;;;4999072;28;93884;-80
2023/04/09 08:52:57;;;;;;;36.65;23.88;;;;;;;;;;4997574;28;92525;-77
2023/04/09 08:55:23;;;;;;;38.67;23.40;;;;;;;;;;5012593;28;92889;-80
2023/04/09 08:57:49;;;;;;;37.92;23.75;;;;;;;;;;5015253;28;93244;-76
2023/04/09 09:00:16;;;;;;;33.85;21.88;;;;;;;;;;5015712;28;94817;-80
2023/04/09 09:03:01;;;;;;;36.70;22.23;;;;;;;;;;5005685;28;95535;-77
2023/04/09 09:05:40;;;;;;;33.75;21.88;;;;;;;;;;5002808;28;93571;-77
2023/04/09 09:08:27;;;;;;;38.42;23.20;;;;;;;;;;4997896;28;92460;-78
2023/04/09 09:10:53;;;;;;;38.50;23.80;;;;;;;;;;4995268;28;93797;-77
2023/04/09 09:13:22;;;;;;;35.90;23.40;;;;;;;;;;4997560;28;92730;-78
2023/04/09 09:15:55;;;;;;;38.05;23.65;;;;;;;;;;4994334;28;93335;-78
2023/04/09 09:18:37;;;;;;;35.90;23.42;;;;;;;;;;4978761;28;92978;-79
2023/04/09 09:21:09;;;;;;;35.90;23.48;;;;;;;;;;4986010;28;92531;-79
2023/04/09 09:23:35;;;;;;;34.75;24.25;;;;;;;;;;5001546;28;93228;-74
2023/04/09 09:26:10;;;;;;;31.80;22.67;;;;;;;;;;4975029;28;96593;-79
2023/04/09 09:28:36;;;;;;;32.78;23.00;;;;;;;;;;4992679;28;92479;-81
2023/04/09 09:31:09;;;;;;;32.28;21.85;;;;;;;;;;5009946;28;93716;-79
2023/04/09 09:33:36;;;;;;;32.13;20.92;;;;;;;;;;5006582;28;92584;-79
2023/04/09 09:36:03;;;;;;;30.20;22.60;;;;;;;;;;5013421;28;92426;-82
2023/04/09 09:38:29;;;;;;;32.03;21.30;;;;;;;;;;5011406;28;93447;-80
2023/04/09 09:40:56;;;;;;;30.30;21.23;;;;;;;;;;5006048;28;92504;-83
2023/04/09 09:43:22;;;;;;;30.50;21.05;;;;;;;;;;5000027;28;93344;-82
2023/04/09 09:45:48;;;;;;;29.13;19.05;;;;;;;;;;4992615;28;93244;-82
2023/04/09 09:48:15;;;;;;;27.27;19.92;;;;;;;;;;4993875;28;92467;-84
2023/04/09 09:50:41;;;;;;;25.85;19.23;;;;;;;;;;4992653;28;95656;-83
2023/04/09 09:53:09;;;;;;;29.02;19.63;;;;;;;;;;5006891;28;92444;-82
2023/04/09 09:55:40;;;;;;;27.08;19.23;;;;;;;;;;5012636;28;93514;-82
2023/04/09 09:58:16;;;;;;;25.45;18.85;;;;;;;;;;5011580;28;94156;-81
2023/04/09 10:00:45;;;;;;;23.90;18.33;;;;;;;;;;5014090;28;92450;-77
2023/04/09 10:03:13;;;;;;;26.25;19.38;;;;;;;;;;5008696;28;93122;-77
2023/04/09 10:05:40;;;;;;;28.23;20.13;;;;;;;;;;4993608;28;94401;-77
2023/04/09 10:08:07;;;;;;;25.25;19.73;;;;;;;;;;5002459;28;93592;-84
2023/04/09 10:10:33;;;;;;;29.27;19.73;;;;;;;;;;4971847;28;92902;-78
2023/04/09 10:13:00;;;;;;;25.98;19.85;;;;;;;;;;4981806;28;94292;-79
2023/04/09 10:15:29;;;;;;;25.20;19.83;;;;;;;;;;4972252;28;94905;-80
2023/04/09 10:17:56;;;;;;;25.00;18.27;;;;;;;;;;4969959;28;93674;-79
2023/04/09 10:20:26;;;;;;;25.90;19.05;;;;;;;;;;4972796;28;92767;-80
2023/04/09 10:22:52;;;;;;;23.27;17.43;;;;;;;;;;4977027;28;94318;-80
2023/04/09 10:25:19;;;;;;;23.60;18.30;;;;;;;;;;4992383;28;93321;-80
2023/04/09 10:27:58;;;;;;;30.08;20.08;;;;;;;;;;4983120;28;92512;-80
2023/04/09 10:30:32;;;;;;;24.90;18.05;;;;;;;;;;4982100;28;93242;-80
2023/04/09 10:33:12;;;;;;;27.00;18.83;;;;;;;;;;4974054;28;92763;-80
2023/04/09 10:35:38;;;;;;;29.70;19.55;;;;;;;;;;4976290;28;92466;-80
2023/04/09 10:38:06;;;;;;;24.10;17.60;;;;;;;;;;4968176;28;94018;-80
2023/04/09 10:40:32;;;;;;;24.63;18.08;;;;;;;;;;4969304;28;95085;-80
2023/04/09 10:43:00;;;;;;;27.27;18.38;;;;;;;;;;4979151;28;95774;-80
2023/04/09 10:45:37;;;;;;;24.08;17.60;;;;;;;;;;4973551;28;93497;-80
2023/04/09 10:48:04;;;;;;;24.52;18.27;;;;;;;;;;4977287;28;92521;-78
2023/04/09 10:50:31;;;;;;;25.55;18.50;;;;;;;;;;4972145;28;93548;-80
2023/04/09 10:52:59;;;;;;;22.67;16.73;;;;;;;;;;4973302;28;93457;-79
2023/04/09 10:55:29;;;;;;;21.77;16.20;;;;;;;;;;4972770;28;92536;-79
2023/04/09 10:57:55;;;;;;;20.90;15.53;;;;;;;;;;4995052;28;93205;-79
2023/04/09 11:00:22;;;;;;;20.25;15.75;;;;;;;;;;4983446;28;92747;-80
2023/04/09 11:03:07;;;;;;;21.38;15.05;;;;;;;;;;4992717;28;93217;-78
2023/04/09 11:05:35;;;;;;;19.95;14.35;;;;;;;;;;4988288;28;95836;-78
2023/04/09 11:08:09;;;;;;;27.48;13.85;;;;;;;;;;4991888;28;92505;-78
2023/04/09 11:10:36;;;;;;;17.17;11.85;;;;;;;;;;4975929;28;94203;-79
2023/04/09 11:13:05;;;;;;;17.17;11.30;;;;;;;;;;4973089;28;94024;-78
2023/04/09 11:15:34;;;;;;;16.95;11.52;;;;;;;;;;4973044;28;92510;-78
2023/04/09 11:18:01;;;;;;;16.75;11.65;;;;;;;;;;4985173;28;94714;-79
2023/04/09 11:20:29;;;;;;;16.92;11.65;;;;;;;;;;4997591;28;93692;-79
2023/04/09 11:22:57;;;;;;;17.02;11.52;;;;;;;;;;4965163;28;94681;-78
2023/04/09 11:25:25;;;;;;;15.77;11.00;;;;;;;;;;4976052;28;93725;-78
2023/04/09 11:27:52;;;;;;;15.73;11.05;;;;;;;;;;4973481;28;92486;-80
2023/04/09 11:30:18;;;;;;;14.05;10.25;;;;;;;;;;4975030;28;94880;-79
2023/04/09 11:32:45;;;;;;;14.40;10.00;;;;;;;;;;4973599;28;94361;-80
2023/04/09 11:35:13;;;;;;;16.65;10.77;;;;;;;;;;4975096;28;92632;-79
2023/04/09 11:37:40;;;;;;;15.45;11.52;;;;;;;;;;4984771;28;94169;-80
2023/04/09 11:40:07;;;;;;;18.35;11.48;;;;;;;;;;4973329;28;93442;-80
2023/04/09 11:42:34;;;;;;;15.40;11.15;;;;;;;;;;4988435;28;92485;-82
2023/04/09 11:45:01;;;;;;;17.00;10.60;;;;;;;;;;4977405;28;93338;-81
2023/04/09 11:47:27;;;;;;;16.52;11.45;;;;;;;;;;4976685;28;91694;-81
2023/04/09 11:49:54;;;;;;;18.70;11.48;;;;;;;;;;4977176;28;93133;-80
2023/04/09 11:52:20;;;;;;;16.65;12.05;;;;;;;;;;4979990;28;94200;-80
2023/04/09 11:54:48;;;;;;;17.27;11.80;;;;;;;;;;4990304;28;94901;-80
2023/04/09 11:57:14;;;;;;;23.55;11.63;;;;;;;;;;4988973;28;95616;-81
2023/04/09 11:59:40;;;;;;;15.15;11.18;;;;;;;;;;4991013;28;94257;-80
2023/04/09 12:02:07;;;;;;;17.15;12.05;;;;;;;;;;4996869;28;92560;-81
2023/04/09 12:04:33;;;;;;;15.32;11.23;;;;;;;;;;4993484;28;93421;-77
2023/04/09 12:07:00;;;;;;;15.90;11.60;;;;;;;;;;4974566;28;93037;-79
2023/04/09 12:09:26;;;;;;;15.32;11.32;;;;;;;;;;4985893;28;93132;-78
2023/04/09 12:11:53;;;;;;;15.90;10.68;;;;;;;;;;4995439;28;93054;-78
2023/04/09 12:14:20;;;;;;;17.00;11.15;;;;;;;;;;4995502;28;92776;-80
2023/04/09 12:16:49;;;;;;;19.40;11.70;;;;;;;;;;5000100;28;92980;-79
2023/04/09 12:19:18;;;;;;;19.10;11.43;;;;;;;;;;4992525;28;95987;-80
2023/04/09 12:21:51;;;;;;;16.48;11.38;;;;;;;;;;5004849;28;94167;-81
2023/04/09 12:24:19;;;;;;;14.90;10.68;;;;;;;;;;5024007;28;93169;-81
2023/04/09 12:26:45;;;;;;;13.98;10.35;;;;;;;;;;5016060;28;92968;-79
2023/04/09 12:29:12;;;;;;;15.98;10.15;;;;;;;;;;5004454;28;93743;-85
2023/04/09 12:31:39;;;;;;;13.45;10.50;;;;;;;;;;5003236;28;93954;-84
2023/04/09 12:34:05;;;;;;;85.22;12.48;;;;;;;;;;5006144;28;92476;-80
2023/04/09 12:36:32;;;;;;;17.77;9.07;;;;;;;;;;5011384;28;93194;-81
2023/04/09 12:38:58;;;;;;;17.88;10.60;;;;;;;;;;5014160;28;93538;-82
2023/04/09 12:41:25;;;;;;;15.43;11.00;;;;;;;;;;5000397;28;92620;-81
2023/04/09 12:43:51;;;;;;;15.20;10.57;;;;;;;;;;4999713;28;94928;-80
2023/04/09 12:46:18;;;;;;;15.88;11.32;;;;;;;;;;4997995;28;93677;-81
2023/04/09 12:48:45;;;;;;;13.63;9.93;;;;;;;;;;5020014;28;93449;-83
2023/04/09 12:51:12;;;;;;;13.68;10.75;;;;;;;;;;5016575;28;93762;-83
2023/04/09 12:53:38;;;;;;;13.10;9.88;;;;;;;;;;4996609;28;92638;-81
2023/04/09 12:56:05;;;;;;;14.88;10.10;;;;;;;;;;4998889;28;94732;-84
2023/04/09 12:58:31;;;;;;;13.95;10.32;;;;;;;;;;4996681;28;93527;-84
2023/04/09 13:00:58;;;;;;;14.48;11.20;;;;;;;;;;4997860;28;91715;-84
2023/04/09 13:03:24;;;;;;;14.00;10.65;;;;;;;;;;4988164;28;93672;-80
2023/04/09 13:05:51;;;;;;;13.55;10.15;;;;;;;;;;4985599;28;93406;-82
2023/04/09 13:08:17;;;;;;;16.73;11.38;;;;;;;;;;5004276;28;95110;-81
2023/04/09 13:10:43;;;;;;;13.02;10.43;;;;;;;;;;4981246;28;94362;-82
2023/04/09 13:13:13;;;;;;;15.88;10.35;;;;;;;;;;4996828;28;93206;-81
2023/04/09 13:15:42;;;;;;;14.75;10.02;;;;;;;;;;5004084;28;94454;-83
2023/04/09 13:18:08;;;;;;;13.43;10.50;;;;;;;;;;4997386;28;94584;-82
2023/04/09 13:20:35;;;;;;;14.48;11.02;;;;;;;;;;4991442;28;92502;-79
2023/04/09 13:23:01;;;;;;;15.32;11.15;;;;;;;;;;4988449;28;93526;-82
2023/04/09 13:25:28;;;;;;;18.67;11.38;;;;;;;;;;4995373;28;92320;-79
2023/04/09 13:27:54;;;;;;;14.60;10.65;;;;;;;;;;5003711;28;92657;-78
2023/04/09 13:30:21;;;;;;;13.63;9.80;;;;;;;;;;4997378;28;93542;-79
2023/04/09 13:32:47;;;;;;;15.05;11.27;;;;;;;;;;4991570;28;95133;-80
2023/04/09 13:35:14;;;;;;;17.10;11.02;;;;;;;;;;4989941;28;95759;-79
2023/04/09 13:37:40;;;;;;;17.33;11.52;;;;;;;;;;4983351;28;94426;-80
2023/04/09 13:40:08;;;;;;;17.73;11.32;;;;;;;;;;5003171;28;94186;-79
2023/04/09 13:42:36;;;;;;;13.20;10.90;;;;;;;;;;5011567;28;93365;-81
2023/04/09 13:45:03;;;;;;;16.70;11.57;;;;;;;;;;5014362;28;93462;-79
2023/04/09 13:47:29;;;;;;;15.63;11.93;;;;;;;;;;5007183;28;92886;-80
2023/04/09 13:49:55;;;;;;;15.05;10.85;;;;;;;;;;5003904;28;93087;-79
2023/04/09 13:52:22;;;;;;;16.30;10.45;;;;;;;;;;4994233;28;92652;-79
2023/04/09 13:54:52;;;;;;;14.07;10.32;;;;;;;;;;4994012;28;93264;-78
2023/04/09 13:57:18;;;;;;;11.70;9.00;;;;;;;;;;5007728;28;96114;-77
2023/04/09 13:59:45;;;;;;;14.50;10.90;;;;;;;;;;4993864;28;92894;-78
2023/04/09 14:02:11;;;;;;;15.68;10.75;;;;;;;;;;4997397;28;95863;-79
2023/04/09 14:04:38;;;;;;;15.15;10.57;;;;;;;;;;4992359;28;93747;-78
2023/04/09 14:07:05;;;;;;;16.70;10.00;;;;;;;;;;4996464;28;92577;-78
2023/04/09 14:09:31;;;;;;;15.10;10.32;;;;;;;;;;5002573;28;93913;-78
2023/04/09 14:11:57;;;;;;;13.32;10.23;;;;;;;;;;5007192;28;95061;-77
2023/04/09 14:14:24;;;;;;;17.88;11.73;;;;;;;;;;4998481;28;93162;-77
2023/04/09 14:16:51;;;;;;;14.27;10.30;;;;;;;;;;4999299;28;93621;-77